createdAt,value
2017-10-21T00:00:42.373Z,101217.14
2017-10-21T00:03:11.437Z,101220.23
2017-10-21T00:05:39.756Z,101215.48
2017-10-21T00:08:08.844Z,101219.41
2017-10-21T00:10:37.165Z,101208.78
2017-10-21T00:13:05.466Z,101213.05
2017-10-21T00:15:33.769Z,101210.67
2017-10-21T00:18:02.086Z,101215.83
2017-10-21T00:20:31.460Z,101210.67
2017-10-21T00:22:59.825Z,101209.95
2017-10-21T00:25:28.205Z,101217.89
2017-10-21T00:27:56.951Z,101215.17
2017-10-21T00:30:26.053Z,101205.00
2017-10-21T00:32:54.377Z,101203.25
2017-10-21T00:35:22.713Z,101197.98
2017-10-21T00:37:52.140Z,101202.32
2017-10-21T00:40:20.474Z,101192.63
2017-10-21T00:42:48.804Z,101190.45
2017-10-21T00:45:17.102Z,101187.67
2017-10-21T00:47:45.427Z,101190.66
2017-10-21T00:50:13.751Z,101194.59
2017-10-21T00:52:42.061Z,101191.28
2017-10-21T00:55:10.382Z,101184.69
2017-10-21T00:57:38.706Z,101181.48
2017-10-21T01:00:07.011Z,101174.79
2017-10-21T01:02:35.339Z,101167.61
2017-10-21T01:05:04.407Z,101165.02
2017-10-21T01:07:32.717Z,101166.47
2017-10-21T01:10:01.830Z,101161.21
2017-10-21T01:12:30.150Z,101156.98
2017-10-21T01:14:58.448Z,101164.00
2017-10-21T01:17:26.791Z,101161.21
2017-10-21T01:19:55.130Z,101158.43
2017-10-21T01:22:23.452Z,101154.30
2017-10-21T01:24:51.771Z,101154.30
2017-10-21T01:27:20.096Z,101149.45
2017-10-21T01:29:49.183Z,101143.69
2017-10-21T01:32:18.315Z,101148.22
2017-10-21T01:34:46.646Z,101153.17
2017-10-21T01:37:15.290Z,101156.67
2017-10-21T01:39:43.586Z,101157.39
2017-10-21T01:42:11.886Z,101154.72
2017-10-21T01:44:40.192Z,101154.51
2017-10-21T01:47:08.506Z,101146.98
2017-10-21T01:49:36.838Z,101145.30
2017-10-21T01:52:05.207Z,101146.64
2017-10-21T01:54:33.525Z,101145.81
2017-10-21T01:57:02.615Z,101142.83
2017-10-21T01:59:30.945Z,101140.80
2017-10-21T02:01:59.270Z,101133.27
2017-10-21T02:04:27.565Z,101131.93
2017-10-21T02:06:55.890Z,101121.83
2017-10-21T02:09:24.198Z,101126.16
2017-10-21T02:11:52.537Z,101129.31
2017-10-21T02:14:20.883Z,101117.08
2017-10-21T02:16:49.188Z,101106.77
2017-10-21T02:19:18.281Z,101095.60
2017-10-21T02:21:47.365Z,101089.52
2017-10-21T02:24:15.725Z,101083.94
2017-10-21T02:26:44.036Z,101079.61
2017-10-21T02:29:12.368Z,101083.73
2017-10-21T02:31:40.797Z,101080.53
2017-10-21T02:34:09.111Z,101079.81
2017-10-21T02:36:37.425Z,101078.47
2017-10-21T02:39:05.740Z,101069.09
2017-10-21T02:41:34.065Z,101063.52
2017-10-21T02:44:02.379Z,101059.08
2017-10-21T02:46:30.705Z,101049.59
2017-10-21T02:48:59.819Z,101047.95
2017-10-21T02:51:28.135Z,101040.83
2017-10-21T02:53:56.438Z,101038.05
2017-10-21T02:56:24.834Z,101041.55
2017-10-21T02:58:53.166Z,101054.54
2017-10-21T03:01:21.487Z,101042.27
2017-10-21T03:03:49.792Z,101049.81
2017-10-21T03:06:18.858Z,101042.39
2017-10-21T03:08:47.329Z,101038.47
2017-10-21T03:11:15.638Z,101042.49
2017-10-21T03:13:43.947Z,101047.34
2017-10-21T03:16:13.048Z,101032.80
2017-10-21T03:18:42.135Z,101033.30
2017-10-21T03:21:11.209Z,101024.33
2017-10-21T03:23:39.522Z,101031.34
2017-10-21T03:26:08.597Z,101026.91
2017-10-21T03:28:38.418Z,101031.86
2017-10-21T03:31:07.497Z,101020.09
2017-10-21T03:33:35.804Z,101015.01
2017-10-21T03:36:04.119Z,101019.64
2017-10-21T03:38:32.423Z,101016.14
2017-10-21T03:41:00.751Z,101003.66
2017-10-21T03:43:29.065Z,101017.38
2017-10-21T03:45:57.369Z,101002.32
2017-10-21T03:48:25.672Z,101007.27
2017-10-21T03:50:53.981Z,100996.24
2017-10-21T03:53:23.047Z,100993.28
2017-10-21T03:55:51.389Z,100986.58
2017-10-21T03:58:19.884Z,100982.15
2017-10-21T04:00:48.199Z,100981.75
2017-10-21T04:03:16.511Z,100989.59
2017-10-21T04:05:44.816Z,100982.69
2017-10-21T04:08:13.128Z,100977.33
2017-10-21T04:10:41.439Z,100977.73
2017-10-21T04:13:09.735Z,100979.49
2017-10-21T04:15:38.059Z,100966.50
2017-10-21T04:18:06.365Z,100952.98
2017-10-21T04:20:34.693Z,100949.79
2017-10-21T04:23:03.793Z,100947.93
2017-10-21T04:25:32.911Z,100961.12
2017-10-21T04:28:01.205Z,100954.94
2017-10-21T04:30:30.018Z,100961.64
2017-10-21T04:32:58.341Z,100962.36
2017-10-21T04:35:27.427Z,100959.47
2017-10-21T04:37:55.752Z,100961.52
2017-10-21T04:40:24.133Z,100943.79
2017-10-21T04:42:52.430Z,100948.94
2017-10-21T04:45:20.769Z,100952.55
2017-10-21T04:47:49.850Z,100935.70
2017-10-21T04:50:18.165Z,100927.44
2017-10-21T04:52:46.505Z,100930.32
2017-10-21T04:55:14.804Z,100925.56
2017-10-21T04:57:43.100Z,100932.88
2017-10-21T05:00:12.186Z,100913.89
2017-10-21T05:02:40.503Z,100921.84
2017-10-21T05:05:08.811Z,100914.50
2017-10-21T05:07:37.155Z,100921.67
2017-10-21T05:10:05.461Z,100924.97
2017-10-21T05:12:33.795Z,100928.77
2017-10-21T05:15:02.099Z,100922.07
2017-10-21T05:17:30.408Z,100914.84
2017-10-21T05:19:58.716Z,100912.16
2017-10-21T05:22:27.025Z,100913.50
2017-10-21T05:24:56.105Z,100918.66
2017-10-21T05:27:24.430Z,100907.10
2017-10-21T05:29:52.732Z,100902.76
2017-10-21T05:32:21.041Z,100900.38
2017-10-21T05:34:49.350Z,100906.56
2017-10-21T05:37:18.431Z,100890.88
2017-10-21T05:39:46.761Z,100887.27
2017-10-21T05:42:15.069Z,100895.21
2017-10-21T05:44:43.370Z,100897.48
2017-10-21T05:47:11.710Z,100900.16
2017-10-21T05:49:40.017Z,100898.41
2017-10-21T05:52:08.325Z,100904.59
2017-10-21T05:54:37.002Z,100899.64
2017-10-21T05:57:05.293Z,100893.98
2017-10-21T05:59:33.597Z,100899.23
2017-10-21T06:02:02.693Z,100890.60
2017-10-21T06:04:31.771Z,100895.43
2017-10-21T06:07:00.079Z,100885.87
2017-10-21T06:09:29.148Z,100887.95
2017-10-21T06:11:57.507Z,100898.21
2017-10-21T06:14:25.841Z,100890.09
2017-10-21T06:16:54.907Z,100899.30
2017-10-21T06:19:23.218Z,100899.86
2017-10-21T06:21:52.295Z,100890.70
2017-10-21T06:24:20.626Z,100888.50
2017-10-21T06:26:48.933Z,100886.26
2017-10-21T06:29:17.264Z,100889.16
2017-10-21T06:31:46.349Z,100878.69
2017-10-21T06:34:14.679Z,100867.57
2017-10-21T06:36:42.987Z,100878.19
2017-10-21T06:39:11.311Z,100878.92
2017-10-21T06:41:40.397Z,100864.70
2017-10-21T06:44:08.706Z,100877.69
2017-10-21T06:49:12.390Z,100877.38
2017-10-21T06:51:40.727Z,100878.94
2017-10-21T06:54:09.035Z,100890.58
2017-10-21T06:56:37.338Z,100883.50
2017-10-21T06:59:05.674Z,100889.89
2017-10-21T07:01:33.997Z,100885.56
2017-10-21T07:04:03.075Z,100883.52
2017-10-21T07:06:31.387Z,100886.50
2017-10-21T07:08:59.719Z,100890.00
2017-10-21T07:11:28.040Z,100899.69
2017-10-21T07:13:56.347Z,100908.04
2017-10-21T07:16:25.877Z,100898.98
2017-10-21T07:18:54.711Z,100898.47
2017-10-21T07:21:23.032Z,100901.14
2017-10-21T07:23:52.150Z,100907.94
2017-10-21T07:26:20.485Z,100905.88
2017-10-21T07:28:48.816Z,100903.50
2017-10-21T07:31:17.120Z,100903.66
2017-10-21T07:33:45.449Z,100896.53
2017-10-21T07:36:15.930Z,100895.38
2017-10-21T07:38:45.731Z,100904.62
2017-10-21T07:41:14.038Z,100915.52
2017-10-21T07:43:42.401Z,100909.84
2017-10-21T07:46:10.714Z,100907.42
2017-10-21T07:48:39.109Z,100905.97
2017-10-21T07:51:07.407Z,100916.37
2017-10-21T07:53:35.717Z,100917.27
2017-10-21T07:56:04.013Z,100920.42
2017-10-21T07:58:32.335Z,100908.34
2017-10-21T08:01:00.673Z,100908.17
2017-10-21T08:03:29.698Z,100913.80
2017-10-21T08:05:57.995Z,100919.97
2017-10-21T08:08:26.309Z,100913.11
2017-10-21T08:10:55.384Z,100904.41
2017-10-21T08:13:23.690Z,100899.89
2017-10-21T08:15:52.767Z,100906.34
2017-10-21T08:18:21.093Z,100904.81
2017-10-21T08:20:49.406Z,100909.05
2017-10-21T08:23:17.748Z,100912.06
2017-10-21T08:25:46.073Z,100919.81
2017-10-21T08:28:14.401Z,100915.52
2017-10-21T08:30:43.487Z,100913.57
2017-10-21T08:33:11.804Z,100911.23
2017-10-21T08:35:40.124Z,100908.47
2017-10-21T08:38:08.430Z,100904.90
2017-10-21T08:40:36.750Z,100902.19
2017-10-21T08:43:05.070Z,100907.08
2017-10-21T08:45:33.403Z,100901.48
2017-10-21T08:48:01.811Z,100912.69
2017-10-21T08:50:30.144Z,100906.59
2017-10-21T08:52:58.464Z,100911.70
2017-10-21T08:55:26.771Z,100912.47
2017-10-21T08:57:55.095Z,100922.13
2017-10-21T09:00:24.178Z,100923.22
2017-10-21T09:02:52.492Z,100926.62
2017-10-21T09:05:20.816Z,100930.89
2017-10-21T09:07:49.145Z,100933.88
2017-10-21T09:10:18.244Z,100927.53
2017-10-21T09:12:47.334Z,100930.44
2017-10-21T09:15:16.425Z,100938.55
2017-10-21T09:17:45.570Z,100936.49
2017-10-21T09:20:13.911Z,100931.67
2017-10-21T09:22:42.231Z,100928.87
2017-10-21T09:25:10.667Z,100928.82
2017-10-21T09:27:39.327Z,100929.27
2017-10-21T09:30:07.653Z,100924.06
2017-10-21T09:32:36.786Z,100916.34
2017-10-21T09:35:05.110Z,100929.30
2017-10-21T09:37:33.450Z,100937.39
2017-10-21T09:40:01.780Z,100929.53
2017-10-21T09:42:30.079Z,100929.20
2017-10-21T09:44:58.386Z,100925.17
2017-10-21T09:47:26.709Z,100930.02
2017-10-21T09:49:55.090Z,100918.13
2017-10-21T09:52:23.405Z,100923.20
2017-10-21T09:54:51.732Z,100922.95
2017-10-21T09:57:20.044Z,100921.37
2017-10-21T09:59:48.362Z,100917.22
2017-10-21T10:02:17.499Z,100924.08
2017-10-21T10:04:45.810Z,100924.52
2017-10-21T10:07:14.123Z,100912.40
2017-10-21T10:09:43.194Z,100915.15
2017-10-21T10:12:11.509Z,100918.28
2017-10-21T10:14:40.600Z,100909.27
2017-10-21T10:17:09.696Z,100910.58
2017-10-21T10:19:38.757Z,100909.34
2017-10-21T10:22:07.092Z,100921.84
2017-10-21T10:24:37.636Z,100911.61
2017-10-21T10:27:11.533Z,100921.16
2017-10-21T10:29:40.404Z,100912.67
2017-10-21T10:32:09.513Z,100909.16
2017-10-21T10:34:38.583Z,100914.79
2017-10-21T10:37:06.877Z,100907.81
2017-10-21T10:39:35.196Z,100916.00
2017-10-21T10:42:03.524Z,100909.08
2017-10-21T10:44:31.846Z,100915.37
2017-10-21T10:47:00.917Z,100909.91
2017-10-21T10:49:29.229Z,100913.83
2017-10-21T10:51:57.558Z,100931.25
2017-10-21T10:54:25.872Z,100915.80
2017-10-21T10:56:54.171Z,100916.88
2017-10-21T10:59:23.251Z,100909.98
2017-10-21T11:01:51.569Z,100907.84
2017-10-21T11:04:20.028Z,100906.55
2017-10-21T11:06:49.103Z,100909.88
2017-10-21T11:09:17.441Z,100908.88
2017-10-21T11:11:45.765Z,100924.64
2017-10-21T11:14:14.826Z,100915.31
2017-10-21T11:16:43.133Z,100914.35
2017-10-21T11:19:11.437Z,100920.56
2017-10-21T11:21:39.761Z,100915.42
2017-10-21T11:24:08.060Z,100909.94
2017-10-21T11:26:36.377Z,100915.73
2017-10-21T11:29:04.690Z,100931.06
2017-10-21T11:31:33.775Z,100919.11
2017-10-21T11:34:02.853Z,100915.59
2017-10-21T11:36:31.165Z,100919.77
2017-10-21T11:39:00.232Z,100919.00
2017-10-21T11:41:28.568Z,100916.64
2017-10-21T11:43:56.879Z,100915.94
2017-10-21T11:46:25.176Z,100924.46
2017-10-21T11:48:53.531Z,100915.66
2017-10-21T11:51:21.845Z,100912.29
2017-10-21T11:53:50.153Z,100913.94
2017-10-21T11:56:19.209Z,100910.45
2017-10-21T11:58:47.508Z,100911.22
2017-10-21T12:01:15.809Z,100908.97
2017-10-21T12:03:44.872Z,100912.05
2017-10-21T12:06:13.183Z,100919.21
2017-10-21T12:08:41.495Z,100918.75
2017-10-21T12:11:09.814Z,100908.88
2017-10-21T12:13:38.115Z,100911.12
2017-10-21T12:16:07.242Z,100918.95
2017-10-21T12:18:36.343Z,100904.11
2017-10-21T12:21:05.528Z,100900.75
2017-10-21T12:23:33.897Z,100888.77
2017-10-21T12:26:02.261Z,100896.64
2017-10-21T12:28:31.395Z,100897.58
2017-10-21T12:31:00.550Z,100895.44
2017-10-21T12:33:29.735Z,100913.30
2017-10-21T12:35:58.091Z,100905.32
2017-10-21T12:38:27.303Z,100904.63
2017-10-21T12:40:56.364Z,100907.70
2017-10-21T12:43:25.155Z,100905.95
2017-10-21T12:45:53.469Z,100900.01
2017-10-21T12:48:22.553Z,100902.55
2017-10-21T12:50:50.867Z,100909.02
2017-10-21T12:53:19.185Z,100916.59
2017-10-21T12:55:48.287Z,100910.08
2017-10-21T12:58:16.591Z,100916.02
2017-10-21T13:00:44.915Z,100911.31
2017-10-21T13:03:13.227Z,100912.21
2017-10-21T13:05:41.583Z,100910.61
2017-10-21T13:08:09.966Z,100892.77
2017-10-21T13:10:41.242Z,100900.91
2017-10-21T13:13:09.569Z,100887.53
2017-10-21T13:15:38.650Z,100886.34
2017-10-21T13:18:06.981Z,100901.52
2017-10-21T13:20:35.296Z,100895.22
2017-10-21T13:23:03.614Z,100885.23
2017-10-21T13:25:32.684Z,100884.29
2017-10-21T13:28:01.013Z,100891.98
2017-10-21T13:30:29.330Z,100893.62
2017-10-21T13:32:57.638Z,100890.63
2017-10-21T13:35:25.957Z,100885.34
2017-10-21T13:37:54.378Z,100889.82
2017-10-21T13:40:22.692Z,100886.45
2017-10-21T13:42:51.033Z,100895.74
2017-10-21T13:45:19.393Z,100884.63
2017-10-21T13:47:47.688Z,100904.73
2017-10-21T13:50:16.009Z,100894.08
2017-10-21T13:52:44.409Z,100890.06
2017-10-21T13:55:13.474Z,100886.45
2017-10-21T13:57:41.797Z,100883.95
2017-10-21T14:00:10.925Z,100883.41
2017-10-21T14:02:39.225Z,100873.14
2017-10-21T14:05:07.557Z,100878.55
2017-10-21T14:07:36.685Z,100895.55
2017-10-21T14:10:04.988Z,100882.98
2017-10-21T14:12:33.348Z,100876.38
2017-10-21T14:15:01.648Z,100884.03
2017-10-21T14:17:30.086Z,100893.70
2017-10-21T14:19:59.209Z,100885.41
2017-10-21T14:22:27.523Z,100883.24
2017-10-21T14:24:56.031Z,100883.20
2017-10-21T14:27:24.358Z,100883.45
2017-10-21T14:29:52.689Z,100882.52
2017-10-21T14:32:21.014Z,100889.27
2017-10-21T14:34:49.329Z,100873.95
2017-10-21T14:37:17.648Z,100884.84
2017-10-21T14:39:46.076Z,100893.66
2017-10-21T14:42:14.430Z,100875.52
2017-10-21T14:44:43.536Z,100885.77
2017-10-21T14:47:12.626Z,100900.17
2017-10-21T14:49:41.722Z,100892.89
2017-10-21T14:52:10.035Z,100892.80
2017-10-21T14:54:38.354Z,100887.28
2017-10-21T14:57:06.684Z,100880.48
2017-10-21T14:59:34.998Z,100875.61
2017-10-21T15:02:03.307Z,100880.36
2017-10-21T15:04:31.647Z,100877.13
2017-10-21T15:06:59.971Z,100884.33
2017-10-21T15:09:28.264Z,100879.12
2017-10-21T15:11:57.366Z,100884.31
2017-10-21T15:14:25.675Z,100888.39
2017-10-21T15:16:54.012Z,100887.77
2017-10-21T15:19:22.323Z,100887.02
2017-10-21T15:21:51.421Z,100899.05
2017-10-21T15:24:20.520Z,100943.00
2017-10-21T15:26:49.596Z,100944.50
2017-10-21T15:29:17.929Z,100906.59
2017-10-21T15:31:46.240Z,100920.34
2017-10-21T15:34:15.360Z,100921.16
2017-10-21T15:36:43.780Z,100899.08
2017-10-21T15:39:12.868Z,100893.02
2017-10-21T15:41:41.959Z,100899.64
2017-10-21T15:44:10.276Z,100897.48
2017-10-21T15:46:38.680Z,100894.71
2017-10-21T15:49:06.985Z,100890.94
2017-10-21T15:51:35.686Z,100893.33
2017-10-21T15:54:04.007Z,100893.25
2017-10-21T15:56:32.308Z,100899.14
2017-10-21T15:59:00.620Z,100892.98
2017-10-21T16:01:28.926Z,100892.39
2017-10-21T16:03:58.020Z,100886.38
2017-10-21T16:06:26.351Z,100882.20
2017-10-21T16:08:54.672Z,100881.98
2017-10-21T16:11:22.998Z,100880.23
2017-10-21T16:13:51.311Z,100878.95
2017-10-21T16:16:19.654Z,100898.82
2017-10-21T16:18:47.965Z,100894.67
2017-10-21T16:21:16.272Z,100926.44
2017-10-21T16:23:44.626Z,100971.00
2017-10-21T16:26:12.931Z,100959.37
2017-10-21T16:28:41.246Z,100929.38
2017-10-21T16:31:10.323Z,100938.16
2017-10-21T16:33:38.633Z,100944.98
2017-10-21T16:36:07.702Z,100955.08
2017-10-21T16:38:36.014Z,100950.01
2017-10-21T16:41:05.101Z,100959.52
2017-10-21T16:43:33.419Z,100963.73
2017-10-21T16:46:01.722Z,100972.23
2017-10-21T16:48:30.043Z,100957.78
2017-10-21T16:50:58.344Z,100947.63
2017-10-21T16:53:27.414Z,100950.13
2017-10-21T16:55:55.736Z,100941.83
2017-10-21T16:58:24.037Z,100933.90
2017-10-21T17:00:52.380Z,100928.34
2017-10-21T17:03:21.469Z,100927.56
2017-10-21T17:05:49.783Z,100944.98
2017-10-21T17:08:18.096Z,100936.22
2017-10-21T17:10:46.406Z,100926.64
2017-10-21T17:13:14.708Z,100939.62
2017-10-21T17:15:43.795Z,100928.80
2017-10-21T17:18:12.879Z,100933.23
2017-10-21T17:20:41.208Z,100931.17
2017-10-21T17:23:09.558Z,100931.58
2017-10-21T17:25:38.624Z,100926.42
2017-10-21T17:28:06.948Z,100916.74
2017-10-21T17:30:35.277Z,100918.97
2017-10-21T17:33:03.592Z,100912.99
2017-10-21T17:35:31.893Z,100916.08
2017-10-21T17:38:00.974Z,100923.09
2017-10-21T17:40:29.285Z,100920.72
2017-10-21T17:42:58.345Z,100924.73
2017-10-21T17:45:26.680Z,100925.04
2017-10-21T17:47:55.168Z,100922.47
2017-10-21T17:50:23.480Z,100905.47
2017-10-21T17:52:51.804Z,100908.77
2017-10-21T17:55:20.868Z,100911.76
2017-10-21T17:57:49.191Z,100915.06
2017-10-21T18:00:19.055Z,100928.04
2017-10-21T18:02:47.357Z,100923.34
2017-10-21T18:05:15.675Z,100923.34
2017-10-21T18:07:43.984Z,100921.17
2017-10-21T18:10:12.295Z,100927.45
2017-10-21T18:12:40.595Z,100927.87
2017-10-21T18:15:08.918Z,100924.98
2017-10-21T18:17:37.225Z,100923.55
2017-10-21T18:20:05.541Z,100935.19
2017-10-21T18:22:33.856Z,100922.20
2017-10-21T18:25:02.161Z,100919.63
2017-10-21T18:27:30.480Z,100912.94
2017-10-21T18:29:58.784Z,100916.02
2017-10-21T18:32:27.856Z,100910.77
2017-10-21T18:34:56.170Z,100911.29
2017-10-21T18:37:24.497Z,100903.15
2017-10-21T18:39:53.580Z,100899.03
2017-10-21T18:42:21.906Z,100901.81
2017-10-21T18:44:50.223Z,100888.42
2017-10-21T18:47:18.529Z,100889.25
2017-10-21T18:49:46.851Z,100882.04
2017-10-21T18:52:15.156Z,100876.68
2017-10-21T18:54:44.301Z,100881.52
2017-10-21T18:57:12.600Z,100892.13
2017-10-21T18:59:40.925Z,100887.09
2017-10-21T19:02:09.266Z,100884.82
2017-10-21T19:04:37.580Z,100877.82
2017-10-21T19:07:06.657Z,100880.91
2017-10-21T19:09:34.978Z,100872.05
2017-10-21T19:12:03.309Z,100882.36
2017-10-21T19:14:31.611Z,100877.92
2017-10-21T19:17:00.703Z,100869.38
2017-10-21T19:19:29.030Z,100871.22
2017-10-21T19:21:57.337Z,100865.77
2017-10-21T19:24:25.751Z,100867.41
2017-10-21T19:26:54.061Z,100876.73
2017-10-21T19:29:22.413Z,100869.53
2017-10-21T19:31:50.731Z,100881.27
2017-10-21T19:34:19.115Z,100876.00
2017-10-21T19:36:50.212Z,100872.09
2017-10-21T19:39:18.538Z,100871.47
2017-10-21T19:41:46.858Z,100870.13
2017-10-21T19:44:15.156Z,100868.79
2017-10-21T19:46:43.495Z,100870.02
2017-10-21T19:49:11.818Z,100866.00
2017-10-21T19:51:40.125Z,100860.23
2017-10-21T19:54:09.217Z,100857.04
2017-10-21T19:56:37.534Z,100857.13
2017-10-21T19:59:05.842Z,100856.31
2017-10-21T20:01:34.173Z,100866.52
2017-10-21T20:04:03.246Z,100861.05
2017-10-21T20:06:31.561Z,100859.19
2017-10-21T20:09:00.653Z,100868.67
2017-10-21T20:11:29.716Z,100855.28
2017-10-21T20:13:58.025Z,100857.55
2017-10-21T20:16:26.348Z,100846.31
2017-10-21T20:18:54.676Z,100845.81
2017-10-21T20:21:23.762Z,100845.20
2017-10-21T20:23:52.065Z,100860.86
2017-10-21T20:26:20.376Z,100848.90
2017-10-21T20:28:48.689Z,100853.22
2017-10-21T20:31:16.985Z,100848.99
2017-10-21T20:33:45.289Z,100847.66
2017-10-21T20:36:14.530Z,100849.92
2017-10-21T20:38:42.850Z,100850.02
2017-10-21T20:41:11.503Z,100837.55
2017-10-21T20:43:39.833Z,100865.27
2017-10-21T20:46:08.137Z,100840.75
2017-10-21T20:48:37.274Z,100852.39
2017-10-21T20:51:05.583Z,100845.34
2017-10-21T20:53:33.873Z,100850.37
2017-10-21T20:56:02.215Z,100847.50
2017-10-21T20:58:30.543Z,100841.73
2017-10-21T21:00:58.853Z,100847.61
2017-10-21T21:03:27.942Z,100844.11
2017-10-21T21:05:56.261Z,100848.67
2017-10-21T21:08:24.593Z,100843.22
2017-10-21T21:10:52.929Z,100849.09
2017-10-21T21:13:21.228Z,100836.84
2017-10-21T21:15:49.631Z,100834.89
2017-10-21T21:18:17.917Z,100834.50
2017-10-21T21:20:46.239Z,100840.72
2017-10-21T21:23:14.550Z,100840.31
2017-10-21T21:25:42.837Z,100843.11
2017-10-21T21:28:12.015Z,100848.34
2017-10-21T21:30:40.330Z,100843.44
2017-10-21T21:33:08.651Z,100837.06
2017-10-21T21:35:37.712Z,100827.48
2017-10-21T21:38:06.013Z,100829.03
2017-10-21T21:40:34.329Z,100817.81
2017-10-21T21:43:02.645Z,100815.05
2017-10-21T21:45:30.940Z,100819.06
2017-10-21T21:47:59.258Z,100812.61
2017-10-21T21:50:28.321Z,100819.41
2017-10-21T21:52:56.634Z,100810.97
2017-10-21T21:55:25.732Z,100806.75
2017-10-21T21:57:54.047Z,100805.52
2017-10-21T22:00:22.343Z,100801.09
2017-10-21T22:02:50.656Z,100807.08
2017-10-21T22:05:18.969Z,100803.89
2017-10-21T22:07:48.039Z,100797.30
2017-10-21T22:10:16.373Z,100808.42
2017-10-21T22:12:44.678Z,100804.75
2017-10-21T22:15:13.648Z,100802.48
2017-10-21T22:17:41.986Z,100791.98
2017-10-21T22:20:10.302Z,100795.38
2017-10-21T22:22:38.620Z,100789.00
2017-10-21T22:25:06.923Z,100787.67
2017-10-21T22:27:35.246Z,100789.63
2017-10-21T22:30:03.560Z,100791.59
2017-10-21T22:32:31.878Z,100785.31
2017-10-21T22:35:00.208Z,100777.80
2017-10-21T22:37:28.520Z,100788.60
2017-10-21T22:39:56.841Z,100786.75
2017-10-21T22:42:25.191Z,100765.96
2017-10-21T22:44:53.503Z,100778.31
2017-10-21T22:47:22.586Z,100776.56
2017-10-21T22:49:50.896Z,100772.03
2017-10-21T22:52:20.018Z,100777.17
2017-10-21T22:54:48.328Z,100775.31
2017-10-21T22:57:17.412Z,100772.75
2017-10-21T22:59:45.740Z,100768.22
2017-10-21T23:02:14.840Z,100771.30
2017-10-21T23:04:43.935Z,100766.67
2017-10-21T23:07:13.011Z,100774.81
2017-10-21T23:09:41.324Z,100758.34
2017-10-21T23:12:10.418Z,100760.81
2017-10-21T23:14:38.728Z,100754.75
2017-10-21T23:17:07.044Z,100756.19
2017-10-21T23:19:35.378Z,100748.68
2017-10-21T23:22:03.802Z,100747.28
2017-10-21T23:24:32.143Z,100742.34
2017-10-21T23:27:01.236Z,100742.09
2017-10-21T23:29:30.315Z,100729.37
2017-10-21T23:31:58.622Z,100731.73
2017-10-21T23:34:27.810Z,100733.70
2017-10-21T23:36:56.876Z,100731.43
2017-10-21T23:39:25.188Z,100738.44
2017-10-21T23:41:53.496Z,100722.38
2017-10-21T23:44:21.809Z,100721.76
2017-10-21T23:46:50.126Z,100726.91
2017-10-21T23:49:19.223Z,100727.11
2017-10-21T23:51:47.610Z,100719.30
2017-10-21T23:54:15.932Z,100730.92
2017-10-21T23:56:44.265Z,100711.69
2017-10-21T23:59:12.598Z,100709.02
